sensor_id;sensor_type;location;lat;lon;timestamp;P1;durP1;ratioP1;P2;durP2;ratioP2
28629;SDS011;15817;42.130;24.762;2023-05-15T00:14:00;14.75;;;12.48;;
28629;SDS011;15817;42.130;24.762;2023-05-15T00:17:02;18.60;;;12.75;;
28629;SDS011;15817;42.130;24.762;2023-05-15T00:19:29;17.65;;;11.35;;
28629;SDS011;15817;42.130;24.762;2023-05-15T00:21:54;19.40;;;12.38;;
28629;SDS011;15817;42.130;24.762;2023-05-15T00:24:38;17.92;;;12.23;;
28629;SDS011;15817;42.130;24.762;2023-05-15T00:30:39;18.40;;;13.20;;
28629;SDS011;15817;42.130;24.762;2023-05-15T00:33:31;17.48;;;13.00;;
28629;SDS011;15817;42.130;24.762;2023-05-15T00:36:09;17.40;;;13.05;;
28629;SDS011;15817;42.130;24.762;2023-05-15T00:38:51;21.13;;;13.02;;
28629;SDS011;15817;42.130;24.762;2023-05-15T00:41:43;20.73;;;13.13;;
28629;SDS011;15817;42.130;24.762;2023-05-15T00:44:57;19.13;;;13.30;;
28629;SDS011;15817;42.130;24.762;2023-05-15T00:47:39;23.17;;;14.05;;
28629;SDS011;15817;42.130;24.762;2023-05-15T00:53:27;20.88;;;14.20;;
28629;SDS011;15817;42.130;24.762;2023-05-15T00:56:17;27.15;;;15.35;;
28629;SDS011;15817;42.130;24.762;2023-05-15T00:59:08;20.40;;;14.65;;
28629;SDS011;15817;42.130;24.762;2023-05-15T01:01:42;20.88;;;14.05;;
28629;SDS011;15817;42.130;24.762;2023-05-15T01:04:37;19.90;;;13.73;;
28629;SDS011;15817;42.130;24.762;2023-05-15T01:07:07;25.33;;;14.68;;
28629;SDS011;15817;42.130;24.762;2023-05-15T01:09:44;20.95;;;14.27;;
28629;SDS011;15817;42.130;24.762;2023-05-15T01:12:29;24.40;;;15.15;;
28629;SDS011;15817;42.130;24.762;2023-05-15T01:15:25;20.40;;;14.35;;
28629;SDS011;15817;42.130;24.762;2023-05-15T01:17:57;23.92;;;14.93;;
28629;SDS011;15817;42.130;24.762;2023-05-15T01:33:33;22.40;;;15.07;;
28629;SDS011;15817;42.130;24.762;2023-05-15T01:36:21;23.33;;;15.63;;
28629;SDS011;15817;42.130;24.762;2023-05-15T01:39:09;22.95;;;14.70;;
28629;SDS011;15817;42.130;24.762;2023-05-15T01:44:54;19.77;;;14.73;;
28629;SDS011;15817;42.130;24.762;2023-05-15T01:47:27;22.15;;;14.82;;
28629;SDS011;15817;42.130;24.762;2023-05-15T01:50:15;19.83;;;14.55;;
28629;SDS011;15817;42.130;24.762;2023-05-15T01:52:47;19.38;;;15.90;;
28629;SDS011;15817;42.130;24.762;2023-05-15T01:55:34;18.65;;;14.65;;
28629;SDS011;15817;42.130;24.762;2023-05-15T01:58:17;17.95;;;15.52;;
28629;SDS011;15817;42.130;24.762;2023-05-15T02:03:46;22.63;;;15.32;;
28629;SDS011;15817;42.130;24.762;2023-05-15T02:06:32;18.08;;;15.45;;
28629;SDS011;15817;42.130;24.762;2023-05-15T02:09:23;18.35;;;15.73;;
28629;SDS011;15817;42.130;24.762;2023-05-15T02:11:53;17.27;;;15.00;;
28629;SDS011;15817;42.130;24.762;2023-05-15T02:14:59;21.02;;;15.15;;
28629;SDS011;15817;42.130;24.762;2023-05-15T02:17:57;19.13;;;15.07;;
28629;SDS011;15817;42.130;24.762;2023-05-15T02:20:53;20.67;;;15.35;;
28629;SDS011;15817;42.130;24.762;2023-05-15T02:24:09;18.33;;;15.82;;
28629;SDS011;15817;42.130;24.762;2023-05-15T02:27:55;21.88;;;15.88;;
28629;SDS011;15817;42.130;24.762;2023-05-15T02:33:48;16.67;;;14.98;;
28629;SDS011;15817;42.130;24.762;2023-05-15T02:36:35;17.52;;;15.73;;
28629;SDS011;15817;42.130;24.762;2023-05-15T02:39:14;19.73;;;14.63;;
28629;SDS011;15817;42.130;24.762;2023-05-15T02:42:12;17.00;;;15.27;;
28629;SDS011;15817;42.130;24.762;2023-05-15T02:45:07;20.85;;;15.20;;
28629;SDS011;15817;42.130;24.762;2023-05-15T02:47:52;16.45;;;14.75;;
28629;SDS011;15817;42.130;24.762;2023-05-15T02:50:18;19.02;;;15.07;;
28629;SDS011;15817;42.130;24.762;2023-05-15T02:53:08;20.27;;;16.17;;
28629;SDS011;15817;42.130;24.762;2023-05-15T02:56:00;19.63;;;15.50;;
28629;SDS011;15817;42.130;24.762;2023-05-15T02:58:36;19.17;;;15.55;;
28629;SDS011;15817;42.130;24.762;2023-05-15T03:01:51;20.25;;;15.13;;
28629;SDS011;15817;42.130;24.762;2023-05-15T03:08:14;16.02;;;14.32;;
28629;SDS011;15817;42.130;24.762;2023-05-15T03:13:57;21.10;;;15.68;;
28629;SDS011;15817;42.130;24.762;2023-05-15T03:21:19;19.35;;;15.70;;
28629;SDS011;15817;42.130;24.762;2023-05-15T03:24:50;19.63;;;16.20;;
28629;SDS011;15817;42.130;24.762;2023-05-15T03:45:38;20.70;;;16.83;;
28629;SDS011;15817;42.130;24.762;2023-05-15T03:48:14;23.05;;;17.95;;
28629;SDS011;15817;42.130;24.762;2023-05-15T03:57:37;23.63;;;19.27;;
28629;SDS011;15817;42.130;24.762;2023-05-15T04:03:19;22.98;;;19.05;;
28629;SDS011;15817;42.130;24.762;2023-05-15T04:09:36;24.67;;;19.95;;
28629;SDS011;15817;42.130;24.762;2023-05-15T04:12:45;24.35;;;20.38;;
28629;SDS011;15817;42.130;24.762;2023-05-15T04:15:22;24.45;;;19.77;;
28629;SDS011;15817;42.130;24.762;2023-05-15T04:17:50;28.05;;;19.60;;
28629;SDS011;15817;42.130;24.762;2023-05-15T04:20:18;29.30;;;20.60;;
28629;SDS011;15817;42.130;24.762;2023-05-15T04:22:48;28.95;;;20.33;;
28629;SDS011;15817;42.130;24.762;2023-05-15T04:25:16;23.73;;;19.77;;
28629;SDS011;15817;42.130;24.762;2023-05-15T04:27:49;24.92;;;19.23;;
28629;SDS011;15817;42.130;24.762;2023-05-15T04:30:15;26.30;;;19.35;;
28629;SDS011;15817;42.130;24.762;2023-05-15T04:32:41;24.10;;;18.55;;
28629;SDS011;15817;42.130;24.762;2023-05-15T04:35:08;24.67;;;16.23;;
28629;SDS011;15817;42.130;24.762;2023-05-15T04:37:36;21.88;;;16.65;;
28629;SDS011;15817;42.130;24.762;2023-05-15T04:40:06;22.05;;;16.67;;
28629;SDS011;15817;42.130;24.762;2023-05-15T04:42:33;19.55;;;17.45;;
28629;SDS011;15817;42.130;24.762;2023-05-15T04:45:00;22.67;;;18.17;;
28629;SDS011;15817;42.130;24.762;2023-05-15T04:47:26;22.85;;;17.65;;
28629;SDS011;15817;42.130;24.762;2023-05-15T04:49:52;23.70;;;18.92;;
28629;SDS011;15817;42.130;24.762;2023-05-15T04:52:18;24.60;;;20.05;;
28629;SDS011;15817;42.130;24.762;2023-05-15T04:54:46;28.17;;;19.85;;
28629;SDS011;15817;42.130;24.762;2023-05-15T04:57:15;22.67;;;18.63;;
28629;SDS011;15817;42.130;24.762;2023-05-15T04:59:41;26.17;;;19.55;;
28629;SDS011;15817;42.130;24.762;2023-05-15T05:02:15;23.85;;;20.17;;
28629;SDS011;15817;42.130;24.762;2023-05-15T05:08:01;28.65;;;21.73;;
28629;SDS011;15817;42.130;24.762;2023-05-15T05:13:21;30.92;;;23.27;;
28629;SDS011;15817;42.130;24.762;2023-05-15T05:16:33;34.60;;;24.98;;
28629;SDS011;15817;42.130;24.762;2023-05-15T05:19:05;26.73;;;23.08;;
28629;SDS011;15817;42.130;24.762;2023-05-15T05:21:40;29.67;;;24.73;;
28629;SDS011;15817;42.130;24.762;2023-05-15T05:24:05;30.02;;;22.33;;
28629;SDS011;15817;42.130;24.762;2023-05-15T05:26:31;33.58;;;23.77;;
28629;SDS011;15817;42.130;24.762;2023-05-15T05:29:15;32.85;;;23.42;;
28629;SDS011;15817;42.130;24.762;2023-05-15T05:32:37;30.95;;;22.77;;
28629;SDS011;15817;42.130;24.762;2023-05-15T05:35:50;30.15;;;23.33;;
28629;SDS011;15817;42.130;24.762;2023-05-15T05:38:16;32.28;;;23.02;;
28629;SDS011;15817;42.130;24.762;2023-05-15T05:40:45;27.88;;;22.70;;
28629;SDS011;15817;42.130;24.762;2023-05-15T05:43:19;29.20;;;23.33;;
28629;SDS011;15817;42.130;24.762;2023-05-15T05:46:01;28.20;;;23.05;;
28629;SDS011;15817;42.130;24.762;2023-05-15T05:48:27;28.35;;;22.83;;
28629;SDS011;15817;42.130;24.762;2023-05-15T05:50:53;30.90;;;22.80;;
28629;SDS011;15817;42.130;24.762;2023-05-15T05:53:19;26.77;;;21.95;;
28629;SDS011;15817;42.130;24.762;2023-05-15T05:55:45;26.98;;;21.40;;
28629;SDS011;15817;42.130;24.762;2023-05-15T05:58:11;28.80;;;21.15;;
28629;SDS011;15817;42.130;24.762;2023-05-15T06:00:37;30.55;;;22.05;;
28629;SDS011;15817;42.130;24.762;2023-05-15T06:03:03;26.10;;;20.40;;
28629;SDS011;15817;42.130;24.762;2023-05-15T06:05:28;26.65;;;19.98;;
28629;SDS011;15817;42.130;24.762;2023-05-15T06:07:54;26.23;;;20.73;;
28629;SDS011;15817;42.130;24.762;2023-05-15T06:10:20;25.77;;;19.95;;
28629;SDS011;15817;42.130;24.762;2023-05-15T06:12:47;26.33;;;20.13;;
28629;SDS011;15817;42.130;24.762;2023-05-15T06:15:13;27.30;;;19.77;;
28629;SDS011;15817;42.130;24.762;2023-05-15T06:17:40;28.77;;;22.48;;
28629;SDS011;15817;42.130;24.762;2023-05-15T06:20:06;30.38;;;23.40;;
28629;SDS011;15817;42.130;24.762;2023-05-15T06:22:36;26.95;;;21.85;;
28629;SDS011;15817;42.130;24.762;2023-05-15T06:25:05;25.67;;;21.83;;
28629;SDS011;15817;42.130;24.762;2023-05-15T06:27:32;25.30;;;22.33;;
28629;SDS011;15817;42.130;24.762;2023-05-15T06:29:58;24.23;;;21.27;;
28629;SDS011;15817;42.130;24.762;2023-05-15T06:32:27;23.25;;;20.67;;
28629;SDS011;15817;42.130;24.762;2023-05-15T06:34:53;26.92;;;20.52;;
28629;SDS011;15817;42.130;24.762;2023-05-15T06:37:21;22.40;;;19.70;;
28629;SDS011;15817;42.130;24.762;2023-05-15T06:39:46;23.02;;;19.63;;
28629;SDS011;15817;42.130;24.762;2023-05-15T06:42:12;22.05;;;19.73;;
28629;SDS011;15817;42.130;24.762;2023-05-15T06:44:39;21.23;;;17.42;;
28629;SDS011;15817;42.130;24.762;2023-05-15T06:47:05;21.85;;;18.35;;
28629;SDS011;15817;42.130;24.762;2023-05-15T06:49:35;24.73;;;18.52;;
28629;SDS011;15817;42.130;24.762;2023-05-15T06:52:01;22.02;;;17.60;;
28629;SDS011;15817;42.130;24.762;2023-05-15T06:54:29;20.63;;;15.88;;
28629;SDS011;15817;42.130;24.762;2023-05-15T06:56:57;25.55;;;17.50;;
28629;SDS011;15817;42.130;24.762;2023-05-15T06:59:26;46.45;;;18.17;;
28629;SDS011;15817;42.130;24.762;2023-05-15T07:01:52;21.50;;;16.55;;
28629;SDS011;15817;42.130;24.762;2023-05-15T07:04:18;21.55;;;16.25;;
28629;SDS011;15817;42.130;24.762;2023-05-15T07:06:47;30.70;;;17.02;;
28629;SDS011;15817;42.130;24.762;2023-05-15T07:09:13;22.15;;;16.90;;
28629;SDS011;15817;42.130;24.762;2023-05-15T07:11:38;22.92;;;16.88;;
28629;SDS011;15817;42.130;24.762;2023-05-15T07:14:10;20.77;;;16.92;;
28629;SDS011;15817;42.130;24.762;2023-05-15T07:16:36;22.08;;;16.92;;
28629;SDS011;15817;42.130;24.762;2023-05-15T07:19:02;23.15;;;17.88;;
28629;SDS011;15817;42.130;24.762;2023-05-15T07:21:28;24.38;;;17.58;;
28629;SDS011;15817;42.130;24.762;2023-05-15T07:23:53;20.25;;;16.77;;
28629;SDS011;15817;42.130;24.762;2023-05-15T07:26:19;23.83;;;17.08;;
28629;SDS011;15817;42.130;24.762;2023-05-15T07:28:45;23.73;;;17.17;;
28629;SDS011;15817;42.130;24.762;2023-05-15T07:31:11;20.23;;;16.40;;
28629;SDS011;15817;42.130;24.762;2023-05-15T07:33:37;22.75;;;16.30;;
28629;SDS011;15817;42.130;24.762;2023-05-15T07:36:03;24.25;;;16.05;;
28629;SDS011;15817;42.130;24.762;2023-05-15T07:38:29;19.17;;;14.68;;
28629;SDS011;15817;42.130;24.762;2023-05-15T07:40:56;17.85;;;14.07;;
28629;SDS011;15817;42.130;24.762;2023-05-15T07:43:22;16.55;;;13.38;;
28629;SDS011;15817;42.130;24.762;2023-05-15T07:45:48;17.55;;;14.20;;
28629;SDS011;15817;42.130;24.762;2023-05-15T07:48:17;17.20;;;14.02;;
28629;SDS011;15817;42.130;24.762;2023-05-15T07:50:44;16.90;;;13.55;;
28629;SDS011;15817;42.130;24.762;2023-05-15T07:53:13;17.02;;;13.65;;
28629;SDS011;15817;42.130;24.762;2023-05-15T07:55:41;16.92;;;13.38;;
28629;SDS011;15817;42.130;24.762;2023-05-15T07:58:07;14.73;;;12.20;;
28629;SDS011;15817;42.130;24.762;2023-05-15T08:00:37;15.02;;;11.50;;
28629;SDS011;15817;42.130;24.762;2023-05-15T08:03:03;19.65;;;13.02;;
28629;SDS011;15817;42.130;24.762;2023-05-15T08:05:29;17.40;;;12.40;;
28629;SDS011;15817;42.130;24.762;2023-05-15T08:07:58;14.63;;;12.38;;
28629;SDS011;15817;42.130;24.762;2023-05-15T08:10:25;13.48;;;11.45;;
28629;SDS011;15817;42.130;24.762;2023-05-15T08:12:51;14.02;;;11.80;;
28629;SDS011;15817;42.130;24.762;2023-05-15T08:15:17;14.82;;;12.75;;
28629;SDS011;15817;42.130;24.762;2023-05-15T08:17:52;15.80;;;14.13;;
28629;SDS011;15817;42.130;24.762;2023-05-15T08:20:21;16.20;;;13.30;;
28629;SDS011;15817;42.130;24.762;2023-05-15T08:25:46;13.90;;;12.50;;
28629;SDS011;15817;42.130;24.762;2023-05-15T08:28:16;20.17;;;13.02;;
28629;SDS011;15817;42.130;24.762;2023-05-15T08:30:42;13.95;;;12.30;;
28629;SDS011;15817;42.130;24.762;2023-05-15T08:33:08;15.60;;;11.27;;
28629;SDS011;15817;42.130;24.762;2023-05-15T08:35:34;13.90;;;11.80;;
28629;SDS011;15817;42.130;24.762;2023-05-15T08:38:02;14.88;;;13.32;;
28629;SDS011;15817;42.130;24.762;2023-05-15T08:40:31;16.42;;;13.40;;
28629;SDS011;15817;42.130;24.762;2023-05-15T08:43:02;17.23;;;13.63;;
28629;SDS011;15817;42.130;24.762;2023-05-15T08:45:31;17.80;;;13.35;;
28629;SDS011;15817;42.130;24.762;2023-05-15T08:48:00;16.05;;;13.63;;
28629;SDS011;15817;42.130;24.762;2023-05-15T08:50:31;19.08;;;15.27;;
28629;SDS011;15817;42.130;24.762;2023-05-15T08:52:57;16.13;;;14.43;;
28629;SDS011;15817;42.130;24.762;2023-05-15T08:55:25;19.83;;;14.43;;
28629;SDS011;15817;42.130;24.762;2023-05-15T08:57:53;18.58;;;15.68;;
28629;SDS011;15817;42.130;24.762;2023-05-15T09:00:19;19.70;;;15.85;;
28629;SDS011;15817;42.130;24.762;2023-05-15T09:02:46;18.80;;;16.27;;
28629;SDS011;15817;42.130;24.762;2023-05-15T09:05:12;21.55;;;17.05;;
28629;SDS011;15817;42.130;24.762;2023-05-15T09:07:38;19.00;;;16.65;;
28629;SDS011;15817;42.130;24.762;2023-05-15T09:10:06;17.70;;;15.88;;
28629;SDS011;15817;42.130;24.762;2023-05-15T09:12:33;20.10;;;16.50;;
28629;SDS011;15817;42.130;24.762;2023-05-15T09:15:14;18.63;;;15.30;;
28629;SDS011;15817;42.130;24.762;2023-05-15T09:17:42;19.33;;;16.13;;
28629;SDS011;15817;42.130;24.762;2023-05-15T09:22:57;19.20;;;14.77;;
28629;SDS011;15817;42.130;24.762;2023-05-15T09:25:31;16.27;;;14.05;;
28629;SDS011;15817;42.130;24.762;2023-05-15T09:28:09;18.35;;;15.75;;
28629;SDS011;15817;42.130;24.762;2023-05-15T09:30:49;17.63;;;15.82;;
28629;SDS011;15817;42.130;24.762;2023-05-15T09:33:32;19.90;;;15.02;;
28629;SDS011;15817;42.130;24.762;2023-05-15T09:36:03;18.27;;;14.27;;
28629;SDS011;15817;42.130;24.762;2023-05-15T09:38:33;16.95;;;15.20;;
28629;SDS011;15817;42.130;24.762;2023-05-15T09:41:02;18.48;;;16.05;;
28629;SDS011;15817;42.130;24.762;2023-05-15T09:43:34;18.67;;;14.85;;
28629;SDS011;15817;42.130;24.762;2023-05-15T09:46:02;21.30;;;15.25;;
28629;SDS011;15817;42.130;24.762;2023-05-15T09:48:29;20.00;;;14.73;;
28629;SDS011;15817;42.130;24.762;2023-05-15T09:51:01;18.48;;;15.82;;
28629;SDS011;15817;42.130;24.762;2023-05-15T09:53:30;28.65;;;15.13;;
28629;SDS011;15817;42.130;24.762;2023-05-15T09:55:56;18.27;;;15.25;;
28629;SDS011;15817;42.130;24.762;2023-05-15T09:58:28;22.40;;;15.80;;
28629;SDS011;15817;42.130;24.762;2023-05-15T10:00:58;16.80;;;14.95;;
28629;SDS011;15817;42.130;24.762;2023-05-15T10:03:28;16.85;;;15.10;;
28629;SDS011;15817;42.130;24.762;2023-05-15T10:06:16;15.68;;;14.07;;
28629;SDS011;15817;42.130;24.762;2023-05-15T10:08:57;21.13;;;15.13;;
28629;SDS011;15817;42.130;24.762;2023-05-15T10:11:25;15.63;;;13.73;;
28629;SDS011;15817;42.130;24.762;2023-05-15T10:14:00;17.17;;;14.10;;
28629;SDS011;15817;42.130;24.762;2023-05-15T10:16:47;19.67;;;15.80;;
28629;SDS011;15817;42.130;24.762;2023-05-15T10:19:15;15.27;;;13.73;;
28629;SDS011;15817;42.130;24.762;2023-05-15T10:21:47;18.88;;;14.88;;
28629;SDS011;15817;42.130;24.762;2023-05-15T10:24:16;19.98;;;15.30;;
28629;SDS011;15817;42.130;24.762;2023-05-15T10:26:45;19.35;;;17.10;;
28629;SDS011;15817;42.130;24.762;2023-05-15T10:29:17;26.50;;;20.17;;
28629;SDS011;15817;42.130;24.762;2023-05-15T10:32:01;25.10;;;19.00;;
28629;SDS011;15817;42.130;24.762;2023-05-15T10:34:38;25.33;;;18.63;;
28629;SDS011;15817;42.130;24.762;2023-05-15T10:37:10;22.45;;;18.75;;
28629;SDS011;15817;42.130;24.762;2023-05-15T10:39:54;24.50;;;18.73;;
28629;SDS011;15817;42.130;24.762;2023-05-15T10:45:31;22.45;;;17.58;;
28629;SDS011;15817;42.130;24.762;2023-05-15T10:48:00;21.90;;;18.05;;
28629;SDS011;15817;42.130;24.762;2023-05-15T10:50:37;28.70;;;17.27;;
28629;SDS011;15817;42.130;24.762;2023-05-15T10:53:08;23.98;;;18.33;;
28629;SDS011;15817;42.130;24.762;2023-05-15T10:55:40;23.73;;;18.05;;
28629;SDS011;15817;42.130;24.762;2023-05-15T10:58:35;27.50;;;18.45;;
28629;SDS011;15817;42.130;24.762;2023-05-15T11:01:03;23.63;;;16.73;;
28629;SDS011;15817;42.130;24.762;2023-05-15T11:03:48;20.15;;;15.98;;
28629;SDS011;15817;42.130;24.762;2023-05-15T11:06:17;18.08;;;16.33;;
28629;SDS011;15817;42.130;24.762;2023-05-15T11:14:30;26.02;;;16.83;;
28629;SDS011;15817;42.130;24.762;2023-05-15T11:17:25;20.52;;;16.70;;
28629;SDS011;15817;42.130;24.762;2023-05-15T11:19:54;25.38;;;16.17;;
28629;SDS011;15817;42.130;24.762;2023-05-15T11:22:38;18.15;;;15.32;;
28629;SDS011;15817;42.130;24.762;2023-05-15T11:25:22;20.88;;;16.85;;
28629;SDS011;15817;42.130;24.762;2023-05-15T11:28:03;20.85;;;16.60;;
28629;SDS011;15817;42.130;24.762;2023-05-15T11:30:45;19.63;;;16.55;;
28629;SDS011;15817;42.130;24.762;2023-05-15T11:33:28;22.05;;;17.25;;
28629;SDS011;15817;42.130;24.762;2023-05-15T11:36:03;24.92;;;17.90;;
28629;SDS011;15817;42.130;24.762;2023-05-15T11:38:36;19.90;;;17.27;;
28629;SDS011;15817;42.130;24.762;2023-05-15T11:41:18;20.88;;;16.88;;
28629;SDS011;15817;42.130;24.762;2023-05-15T11:43:53;24.80;;;16.83;;
28629;SDS011;15817;42.130;24.762;2023-05-15T11:46:31;18.83;;;16.08;;
28629;SDS011;15817;42.130;24.762;2023-05-15T11:49:00;25.60;;;16.58;;
28629;SDS011;15817;42.130;24.762;2023-05-15T11:51:42;20.75;;;16.20;;
28629;SDS011;15817;42.130;24.762;2023-05-15T11:54:28;20.85;;;15.82;;
28629;SDS011;15817;42.130;24.762;2023-05-15T11:57:01;19.25;;;15.63;;
28629;SDS011;15817;42.130;24.762;2023-05-15T11:59:43;17.80;;;15.90;;
28629;SDS011;15817;42.130;24.762;2023-05-15T12:02:17;18.73;;;15.00;;
28629;SDS011;15817;42.130;24.762;2023-05-15T12:04:49;23.17;;;16.65;;
28629;SDS011;15817;42.130;24.762;2023-05-15T12:07:21;22.02;;;17.42;;
28629;SDS011;15817;42.130;24.762;2023-05-15T12:10:33;19.38;;;16.33;;
28629;SDS011;15817;42.130;24.762;2023-05-15T12:13:02;19.40;;;17.20;;
28629;SDS011;15817;42.130;24.762;2023-05-15T12:15:38;20.95;;;15.48;;
28629;SDS011;15817;42.130;24.762;2023-05-15T12:18:40;27.73;;;16.05;;
28629;SDS011;15817;42.130;24.762;2023-05-15T12:21:47;20.23;;;17.67;;
28629;SDS011;15817;42.130;24.762;2023-05-15T12:24:27;19.40;;;17.30;;
28629;SDS011;15817;42.130;24.762;2023-05-15T12:27:04;21.15;;;16.73;;
28629;SDS011;15817;42.130;24.762;2023-05-15T12:29:38;18.48;;;15.60;;
28629;SDS011;15817;42.130;24.762;2023-05-15T12:32:10;23.25;;;17.67;;
28629;SDS011;15817;42.130;24.762;2023-05-15T12:34:46;21.33;;;15.40;;
28629;SDS011;15817;42.130;24.762;2023-05-15T12:37:30;22.40;;;16.85;;
28629;SDS011;15817;42.130;24.762;2023-05-15T12:40:00;25.67;;;19.63;;
28629;SDS011;15817;42.130;24.762;2023-05-15T12:42:55;23.95;;;18.95;;
28629;SDS011;15817;42.130;24.762;2023-05-15T12:45:41;29.00;;;23.30;;
28629;SDS011;15817;42.130;24.762;2023-05-15T12:48:34;27.77;;;21.38;;
28629;SDS011;15817;42.130;24.762;2023-05-15T12:55:16;25.95;;;19.83;;
28629;SDS011;15817;42.130;24.762;2023-05-15T13:01:24;24.38;;;19.25;;
28629;SDS011;15817;42.130;24.762;2023-05-15T13:04:15;30.52;;;20.50;;
28629;SDS011;15817;42.130;24.762;2023-05-15T13:07:07;32.10;;;21.40;;
28629;SDS011;15817;42.130;24.762;2023-05-15T13:10:15;26.73;;;20.48;;
28629;SDS011;15817;42.130;24.762;2023-05-15T13:12:44;28.02;;;20.67;;
28629;SDS011;15817;42.130;24.762;2023-05-15T13:15:25;24.55;;;20.73;;
28629;SDS011;15817;42.130;24.762;2023-05-15T13:18:14;27.52;;;21.35;;
28629;SDS011;15817;42.130;24.762;2023-05-15T13:20:49;25.33;;;21.75;;
28629;SDS011;15817;42.130;24.762;2023-05-15T13:23:28;23.75;;;20.55;;
28629;SDS011;15817;42.130;24.762;2023-05-15T13:26:00;22.70;;;20.30;;
28629;SDS011;15817;42.130;24.762;2023-05-15T13:28:28;27.73;;;21.17;;
28629;SDS011;15817;42.130;24.762;2023-05-15T13:31:11;26.85;;;20.77;;
28629;SDS011;15817;42.130;24.762;2023-05-15T13:33:47;29.83;;;21.58;;
28629;SDS011;15817;42.130;24.762;2023-05-15T13:36:25;22.98;;;20.55;;
28629;SDS011;15817;42.130;24.762;2023-05-15T13:39:17;34.05;;;21.17;;
28629;SDS011;15817;42.130;24.762;2023-05-15T13:48:17;22.20;;;19.80;;
28629;SDS011;15817;42.130;24.762;2023-05-15T13:50:57;22.02;;;19.60;;
28629;SDS011;15817;42.130;24.762;2023-05-15T13:53:52;24.08;;;20.45;;
28629;SDS011;15817;42.130;24.762;2023-05-15T13:56:52;22.35;;;20.00;;
28629;SDS011;15817;42.130;24.762;2023-05-15T13:59:33;26.52;;;20.33;;
28629;SDS011;15817;42.130;24.762;2023-05-15T14:01:59;22.75;;;20.38;;
28629;SDS011;15817;42.130;24.762;2023-05-15T14:04:31;23.05;;;20.55;;
28629;SDS011;15817;42.130;24.762;2023-05-15T14:06:57;22.98;;;20.40;;
28629;SDS011;15817;42.130;24.762;2023-05-15T14:09:25;35.03;;;21.83;;
28629;SDS011;15817;42.130;24.762;2023-05-15T14:11:51;24.42;;;20.92;;
28629;SDS011;15817;42.130;24.762;2023-05-15T14:14:17;31.90;;;20.70;;
28629;SDS011;15817;42.130;24.762;2023-05-15T14:16:46;33.05;;;21.77;;
28629;SDS011;15817;42.130;24.762;2023-05-15T14:19:14;26.25;;;20.10;;
28629;SDS011;15817;42.130;24.762;2023-05-15T14:21:43;32.95;;;20.63;;
28629;SDS011;15817;42.130;24.762;2023-05-15T14:24:11;25.52;;;21.08;;
28629;SDS011;15817;42.130;24.762;2023-05-15T14:26:40;33.03;;;21.10;;
28629;SDS011;15817;42.130;24.762;2023-05-15T14:32:12;31.92;;;21.23;;
28629;SDS011;15817;42.130;24.762;2023-05-15T14:34:50;36.10;;;21.60;;
28629;SDS011;15817;42.130;24.762;2023-05-15T14:37:38;35.13;;;22.88;;
28629;SDS011;15817;42.130;24.762;2023-05-15T14:40:16;33.63;;;21.77;;
28629;SDS011;15817;42.130;24.762;2023-05-15T14:42:52;35.42;;;23.33;;
28629;SDS011;15817;42.130;24.762;2023-05-15T14:45:28;29.88;;;22.20;;
28629;SDS011;15817;42.130;24.762;2023-05-15T14:48:17;33.30;;;22.30;;
28629;SDS011;15817;42.130;24.762;2023-05-15T14:50:44;29.20;;;22.27;;
28629;SDS011;15817;42.130;24.762;2023-05-15T14:53:17;31.75;;;22.23;;
28629;SDS011;15817;42.130;24.762;2023-05-15T14:55:53;28.05;;;21.27;;
28629;SDS011;15817;42.130;24.762;2023-05-15T14:58:41;28.40;;;21.35;;
28629;SDS011;15817;42.130;24.762;2023-05-15T15:01:12;25.00;;;21.00;;
28629;SDS011;15817;42.130;24.762;2023-05-15T15:03:44;31.88;;;22.02;;
28629;SDS011;15817;42.130;24.762;2023-05-15T15:06:10;29.05;;;21.92;;
28629;SDS011;15817;42.130;24.762;2023-05-15T15:08:46;37.35;;;22.30;;
28629;SDS011;15817;42.130;24.762;2023-05-15T15:11:30;36.53;;;25.17;;
28629;SDS011;15817;42.130;24.762;2023-05-15T15:13:59;32.72;;;22.70;;
28629;SDS011;15817;42.130;24.762;2023-05-15T15:16:35;28.10;;;22.08;;
28629;SDS011;15817;42.130;24.762;2023-05-15T15:19:12;29.33;;;21.63;;
28629;SDS011;15817;42.130;24.762;2023-05-15T15:21:41;28.95;;;23.65;;
28629;SDS011;15817;42.130;24.762;2023-05-15T15:24:19;31.00;;;23.05;;
28629;SDS011;15817;42.130;24.762;2023-05-15T15:26:45;32.20;;;23.95;;
28629;SDS011;15817;42.130;24.762;2023-05-15T15:29:41;38.97;;;24.13;;
28629;SDS011;15817;42.130;24.762;2023-05-15T15:32:13;33.13;;;23.52;;
28629;SDS011;15817;42.130;24.762;2023-05-15T15:34:44;28.95;;;23.02;;
28629;SDS011;15817;42.130;24.762;2023-05-15T15:37:13;33.97;;;23.40;;
28629;SDS011;15817;42.130;24.762;2023-05-15T15:39:55;26.02;;;23.30;;
28629;SDS011;15817;42.130;24.762;2023-05-15T15:43:15;32.25;;;21.90;;
28629;SDS011;15817;42.130;24.762;2023-05-15T15:45:41;31.92;;;21.55;;
28629;SDS011;15817;42.130;24.762;2023-05-15T15:48:38;30.40;;;22.58;;
28629;SDS011;15817;42.130;24.762;2023-05-15T15:54:08;29.15;;;22.73;;
28629;SDS011;15817;42.130;24.762;2023-05-15T15:56:40;29.85;;;24.13;;
28629;SDS011;15817;42.130;24.762;2023-05-15T15:59:41;26.27;;;22.77;;
28629;SDS011;15817;42.130;24.762;2023-05-15T16:02:35;26.73;;;22.40;;
28629;SDS011;15817;42.130;24.762;2023-05-15T16:08:11;28.42;;;23.52;;
28629;SDS011;15817;42.130;24.762;2023-05-15T16:10:56;29.75;;;23.38;;
28629;SDS011;15817;42.130;24.762;2023-05-15T16:18:20;30.02;;;22.33;;
28629;SDS011;15817;42.130;24.762;2023-05-15T16:21:00;28.58;;;23.60;;
28629;SDS011;15817;42.130;24.762;2023-05-15T16:23:39;29.92;;;23.08;;
28629;SDS011;15817;42.130;24.762;2023-05-15T16:26:21;28.08;;;23.30;;
28629;SDS011;15817;42.130;24.762;2023-05-15T16:28:47;29.60;;;22.95;;
28629;SDS011;15817;42.130;24.762;2023-05-15T16:31:15;28.05;;;22.90;;
28629;SDS011;15817;42.130;24.762;2023-05-15T16:33:43;34.20;;;24.60;;
28629;SDS011;15817;42.130;24.762;2023-05-15T16:36:17;28.45;;;23.25;;
28629;SDS011;15817;42.130;24.762;2023-05-15T16:38:43;28.52;;;22.50;;
28629;SDS011;15817;42.130;24.762;2023-05-15T16:41:12;33.38;;;24.60;;
28629;SDS011;15817;42.130;24.762;2023-05-15T16:43:45;38.10;;;24.85;;
28629;SDS011;15817;42.130;24.762;2023-05-15T16:46:14;25.95;;;22.92;;
28629;SDS011;15817;42.130;24.762;2023-05-15T16:48:43;28.83;;;23.63;;
28629;SDS011;15817;42.130;24.762;2023-05-15T16:51:34;29.95;;;23.75;;
28629;SDS011;15817;42.130;24.762;2023-05-15T16:54:03;31.48;;;22.98;;
28629;SDS011;15817;42.130;24.762;2023-05-15T16:56:39;32.20;;;23.48;;
28629;SDS011;15817;42.130;24.762;2023-05-15T17:02:27;26.75;;;22.35;;
28629;SDS011;15817;42.130;24.762;2023-05-15T17:05:19;28.58;;;22.30;;
28629;SDS011;15817;42.130;24.762;2023-05-15T17:07:58;29.23;;;24.17;;
28629;SDS011;15817;42.130;24.762;2023-05-15T17:14:34;34.30;;;27.85;;
28629;SDS011;15817;42.130;24.762;2023-05-15T17:17:00;29.60;;;25.00;;
28629;SDS011;15817;42.130;24.762;2023-05-15T17:19:29;31.23;;;23.63;;